El Centro Naf Airport El Centro US
ICAO: KNJK
IATA: NJK
Category: Medium
Scheduled Services: No

Elevation: -42 ft
TransAlt. 18000 ft.

Airport Communications:
ATIS:26.927
CLNC DEL:34.02
GND:121.9
PMSV METRO:34.83
TWR:119.1

KNJK Zoom In..

Runways:

(A) RW 08 length 9503 ft width 200 ft
---- / hdg 77

(B) RW 12 length 6824 ft width 200 ft
---- / hdg 122

(C) RW 26 length 9503 ft width 200 ft
---- / hdg 257

(D) RW 30 length 6824 ft width 200 ft
---- / hdg 302

Location; KNJK
Day. 23 / Time. 09.56 Zulu
* Altimeter: 29.80
* Temperature: 33° c. 91.4°f.
* Wind from: 270° Speed 09 kn.
Dewpoint: 11° c.
Visibility: 10 Statute Miles.
Clouds: Clear (automated report).

KNJK 230956Z AUTO 27009KT 10SM CLR 33/11 A2980 RMK AO2 SLP106 T03280111 $


Wind From 270°
Speed 09 kn.

 
 
jpsmedia.com for Web Design worldairports.se 2018   terms of use